Time;durP1;ratioP1;P1;durP2;ratioP2;P2;SDS_P1;SDS_P2;PMS_P1;PMS_P2;Temp;Humidity;BMP_temperature;BMP_pressure;BME280_temperature;BME280_humidity;BME280_pressure;Samples;Min_cycle;Max_cycle;Signal;HPM_P1;HPM_P2
2022/01/01 00:00:07;;;;;;;;;;;;;;;11.62;64.37;101103.06;5085140;28;1918;-38
2022/01/01 00:02:33;;;;;;;;;;;;;;;11.64;64.84;101101.19;5083009;28;1933;-38
2022/01/01 00:05:00;;;;;;;;;;;;;;;11.62;64.46;101092.47;5079851;28;1845;-38
2022/01/01 00:07:26;;;;;;;;;;;;;;;11.67;64.09;101094.88;5080253;28;1473;-38
2022/01/01 00:09:52;;;;;;;;;;;;;;;11.64;63.86;101089.72;5080497;28;1773;-40
2022/01/01 00:12:19;;;;;;;;;;;;;;;11.65;64.90;101084.34;5084808;28;1080;-38
2022/01/01 00:14:47;;;;;;;;;;;;;;;11.63;64.63;101085.38;5080383;28;1655;-38
2022/01/01 00:17:14;;;;;;;;;;;;;;;11.68;64.82;101080.72;5087804;28;1893;-38
2022/01/01 00:19:40;;;;;;;;;;;;;;;11.65;64.40;101075.56;5079692;28;1536;-39
2022/01/01 00:22:07;;;;;;;;;;;;;;;11.66;64.58;101070.19;5081016;28;1975;-38
2022/01/01 00:24:34;;;;;;;;;;;;;;;11.73;64.57;101066.25;5085280;28;1590;-38
2022/01/01 00:27:00;;;;;;;;;;;;;;;11.70;64.25;101068.25;5081909;28;1470;-39
2022/01/01 00:29:28;;;;;;;;;;;;;;;11.67;63.58;101079.84;5083132;28;1838;-39
2022/01/01 00:31:55;;;;;;;;;;;;;;;11.67;64.35;101084.28;5080774;28;1037;-39
2022/01/01 00:34:22;;;;;;;;;;;;;;;11.67;63.68;101084.28;5089731;28;1893;-38
2022/01/01 00:36:48;;;;;;;;;;;;;;;11.64;64.60;101085.31;5085247;28;1771;-39
2022/01/01 00:39:15;;;;;;;;;;;;;;;11.58;64.13;101071.50;5083662;28;1578;-38
2022/01/01 00:41:42;;;;;;;;;;;;;;;11.64;64.72;101085.31;5082902;28;1910;-39
2022/01/01 00:44:08;;;;;;;;;;;;;;;11.61;64.41;101074.00;5084817;28;1138;-38
2022/01/01 00:46:35;;;;;;;;;;;;;;;11.64;63.69;101085.31;5085254;28;1866;-39
2022/01/01 00:49:03;;;;;;;;;;;;;;;11.63;63.82;101080.09;5075935;28;1843;-38
2022/01/01 00:51:29;;;;;;;;;;;;;;;11.65;64.89;101083.50;5079265;28;1482;-39
2022/01/01 00:53:56;;;;;;;;;;;;;;;11.62;63.94;101058.03;5082145;28;1734;-40
2022/01/01 00:56:22;;;;;;;;;;;;;;;11.61;63.86;101058.97;5084980;28;1084;-38
2022/01/01 00:58:49;;;;;;;;;;;;;;;11.62;64.43;101049.22;5085110;28;1908;-38
2022/01/01 01:01:15;;;;;;;;;;;;;;;11.59;64.36;101039.66;5076133;28;1979;-38
2022/01/01 01:03:42;;;;;;;;;;;;;;;11.66;63.85;101050.78;5081985;28;1692;-39
2022/01/01 01:06:12;;;;;;;;;;;;;;;11.63;64.09;101046.50;5084297;28;2036;-38
2022/01/01 01:08:38;;;;;;;;;;;;;;;11.59;64.41;101031.69;5078836;28;1702;-38
2022/01/01 01:11:07;;;;;;;;;;;;;;;11.58;63.99;101042.38;5081680;28;1746;-38
2022/01/01 01:13:34;;;;;;;;;;;;;;;11.59;63.85;101033.50;5083126;28;1692;-38
2022/01/01 01:16:01;;;;;;;;;;;;;;;11.53;64.66;101040.81;5071665;28;1723;-38
2022/01/01 01:18:27;;;;;;;;;;;;;;;11.55;64.20;101038.94;5082370;28;993;-39
2022/01/01 01:20:54;;;;;;;;;;;;;;;11.57;65.01;101032.72;5084367;28;1978;-38
2022/01/01 01:23:22;;;;;;;;;;;;;;;11.57;63.94;101030.06;5087275;28;1876;-39
2022/01/01 01:25:48;;;;;;;;;;;;;;;11.55;64.09;101030.16;5087268;28;1841;-38
2022/01/01 01:28:15;;;;;;;;;;;;;;;11.61;63.70;101039.56;5084293;28;2046;-38
2022/01/01 01:30:42;;;;;;;;;;;;;;;11.59;64.44;101044.09;5092079;28;1791;-38
2022/01/01 01:33:09;;;;;;;;;;;;;;;11.61;64.70;101042.22;5086156;28;1005;-38
2022/01/01 01:35:36;;;;;;;;;;;;;;;11.60;63.62;101030.78;5087801;28;1871;-39
2022/01/01 01:38:02;;;;;;;;;;;;;;;11.63;63.91;101035.06;5082947;28;1641;-39
2022/01/01 01:40:30;;;;;;;;;;;;;;;11.62;63.93;101041.28;5088635;28;1913;-38
2022/01/01 01:42:57;;;;;;;;;;;;;;;11.64;64.69;101044.69;5086001;28;1668;-38
2022/01/01 01:45:27;;;;;;;;;;;;;;;11.65;64.64;101033.19;5086218;28;1803;-38
2022/01/01 01:47:54;;;;;;;;;;;;;;;11.58;64.37;101034.41;5084204;28;1071;-38
2022/01/01 01:50:20;;;;;;;;;;;;;;;11.54;64.49;101031.09;5082282;28;1593;-39
2022/01/01 01:52:49;;;;;;;;;;;;;;;11.55;65.05;101023.06;5088157;28;1754;-39
2022/01/01 01:55:16;;;;;;;;;;;;;;;11.56;63.74;101029.22;5086194;28;1469;-38
2022/01/01 01:57:44;;;;;;;;;;;;;;;11.57;63.74;101025.63;5086345;28;1535;-38
2022/01/01 02:00:22;;;;;;;;;;;;;;;11.53;64.14;101019.63;5083745;28;1774;-38
2022/01/01 02:02:48;;;;;;;;;;;;;;;11.52;64.03;101004.69;5080712;28;1914;-38
2022/01/01 02:05:15;;;;;;;;;;;;;;;11.54;64.18;101007.28;5087784;28;1838;-39
2022/01/01 02:07:42;;;;;;;;;;;;;;;11.57;64.27;101014.19;5091567;28;1795;-38
2022/01/01 02:10:09;;;;;;;;;;;;;;;11.62;64.03;101020.97;5081485;28;1719;-39
2022/01/01 02:12:35;;;;;;;;;;;;;;;11.65;63.91;101022.56;5087097;28;1693;-39
2022/01/01 02:15:13;;;;;;;;;;;;;;;11.59;64.64;101007.00;5084818;28;1119;-39
2022/01/01 02:17:39;;;;;;;;;;;;;;;11.64;63.71;101012.91;5084944;28;1023;-38
2022/01/01 02:20:10;;;;;;;;;;;;;;;11.62;63.83;101018.31;5090205;28;1838;-38
2022/01/01 02:22:39;;;;;;;;;;;;;;;11.63;63.69;101008.56;5085684;28;1914;-38
2022/01/01 02:25:06;;;;;;;;;;;;;;;11.64;64.28;101020.84;5085789;28;1672;-39
2022/01/01 02:27:33;;;;;;;;;;;;;;;11.63;63.68;101016.50;5085812;28;1805;-38
2022/01/01 02:29:59;;;;;;;;;;;;;;;11.61;64.33;101018.38;5087674;28;1528;-38
2022/01/01 02:32:25;;;;;;;;;;;;;;;11.61;64.19;101010.44;5087340;28;1087;-38
2022/01/01 02:34:52;;;;;;;;;;;;;;;11.63;63.53;100992.66;5088762;28;1836;-38
2022/01/01 02:37:20;;;;;;;;;;;;;;;11.63;64.71;101008.56;5087972;28;1488;-38
2022/01/01 02:39:46;;;;;;;;;;;;;;;11.62;63.76;101002.41;5083152;28;2075;-38
2022/01/01 02:42:18;;;;;;;;;;;;;;;11.59;63.79;101007.00;5087269;28;1989;-38
2022/01/01 02:44:44;;;;;;;;;;;;;;;11.55;63.80;100993.91;5085824;28;1388;-40
2022/01/01 02:47:10;;;;;;;;;;;;;;;11.60;63.99;101000.75;5087195;28;1067;-38
2022/01/01 02:49:37;;;;;;;;;;;;;;;11.61;63.80;100997.19;5089783;28;1896;-39
2022/01/01 02:52:04;;;;;;;;;;;;;;;11.58;63.90;100986.75;5088172;28;1656;-38
2022/01/01 02:54:31;;;;;;;;;;;;;;;11.59;64.47;100999.06;5084074;28;1742;-39
2022/01/01 02:56:58;;;;;;;;;;;;;;;11.58;63.82;100995.56;5085206;28;1469;-38
2022/01/01 02:59:24;;;;;;;;;;;;;;;11.57;64.61;100983.25;5086556;28;1069;-39
2022/01/01 03:01:51;;;;;;;;;;;;;;;11.62;63.50;100980.34;5193128;22;3703;-39
2022/01/01 03:04:17;;;;;;;;;;;;;;;11.60;64.71;100992.81;5084595;28;1862;-39
2022/01/01 03:06:45;;;;;;;;;;;;;;;11.61;63.51;100974.19;5084141;28;1106;-38
2022/01/01 03:09:11;;;;;;;;;;;;;;;11.59;65.04;100969.94;5084117;28;1470;-40
2022/01/01 03:11:39;;;;;;;;;;;;;;;11.58;63.97;100982.34;5085496;28;1633;-38
2022/01/01 03:14:06;;;;;;;;;;;;;;;11.54;64.13;100984.28;5084857;28;1818;-39
2022/01/01 03:16:32;;;;;;;;;;;;;;;11.55;64.01;100980.69;5084727;28;1607;-39
2022/01/01 03:18:58;;;;;;;;;;;;;;;11.53;64.78;100981.72;5086215;28;1737;-38
2022/01/01 03:21:25;;;;;;;;;;;;;;;11.55;64.31;100991.28;5084544;28;2207;-38
2022/01/01 03:23:51;;;;;;;;;;;;;;;11.51;65.02;100987.06;5084208;28;1007;-38
2022/01/01 03:26:18;;;;;;;;;;;;;;;11.51;64.85;100983.59;5086953;28;1053;-38
2022/01/01 03:28:46;;;;;;;;;;;;;;;11.50;64.89;100977.44;5080842;28;1617;-39
2022/01/01 03:31:12;;;;;;;;;;;;;;;11.53;64.02;100979.91;5091547;28;1999;-39
2022/01/01 03:33:38;;;;;;;;;;;;;;;11.50;64.24;100968.66;5085862;28;1699;-39
2022/01/01 03:36:05;;;;;;;;;;;;;;;11.51;64.04;100971.19;5083778;28;1084;-38
2022/01/01 03:38:32;;;;;;;;;;;;;;;11.51;64.02;100979.13;5082673;28;1798;-38
2022/01/01 03:40:58;;;;;;;;;;;;;;;11.55;64.10;100982.47;5083012;28;1784;-38
2022/01/01 03:43:25;;;;;;;;;;;;;;;11.57;64.86;100964.72;5084162;28;2004;-39
2022/01/01 03:45:52;;;;;;;;;;;;;;;11.59;63.91;100975.22;5084193;28;1811;-38
2022/01/01 03:48:19;;;;;;;;;;;;;;;11.55;64.01;100991.28;5091381;28;998;-39
2022/01/01 03:50:45;;;;;;;;;;;;;;;11.58;64.79;100986.75;5082125;28;1888;-39
2022/01/01 03:53:12;;;;;;;;;;;;;;;11.58;63.96;100978.81;5083254;28;1901;-38
2022/01/01 03:55:38;;;;;;;;;;;;;;;11.57;64.65;100988.53;5084317;28;1552;-38
2022/01/01 03:58:05;;;;;;;;;;;;;;;11.56;63.98;100978.91;5084411;28;1645;-39
2022/01/01 04:00:31;;;;;;;;;;;;;;;11.59;63.89;100985.81;5084390;28;1777;-38
2022/01/01 04:03:07;;;;;;;;;;;;;;;11.54;64.91;100981.63;5088021;28;1967;-38
2022/01/01 04:05:34;;;;;;;;;;;;;;;11.51;64.10;100984.44;5082961;28;1793;-39
2022/01/01 04:08:01;;;;;;;;;;;;;;;11.52;64.05;100982.66;5090255;28;1539;-38
2022/01/01 04:10:29;;;;;;;;;;;;;;;11.48;64.17;100981.97;5081873;28;1770;-38
2022/01/01 04:12:55;;;;;;;;;;;;;;;11.50;64.30;100961.56;5083295;28;1566;-38
2022/01/01 04:15:21;;;;;;;;;;;;;;;11.51;65.09;100967.69;5083234;28;1861;-39
2022/01/01 04:17:48;;;;;;;;;;;;;;;11.51;64.12;100957.09;5083218;28;1174;-39
2022/01/01 04:20:16;;;;;;;;;;;;;;;11.58;63.80;100960.25;5085490;28;1769;-38
2022/01/01 04:22:43;;;;;;;;;;;;;;;11.54;64.48;100952.50;5083583;28;1976;-38
2022/01/01 04:25:09;;;;;;;;;;;;;;;11.58;64.85;100968.22;5084372;28;1792;-38
2022/01/01 04:27:36;;;;;;;;;;;;;;;11.58;64.44;100961.13;5083707;28;1584;-38
2022/01/01 04:30:02;;;;;;;;;;;;;;;11.61;64.27;100960.09;5073181;28;1864;-38
2022/01/01 04:32:29;;;;;;;;;;;;;;;11.59;64.77;100956.69;5085181;28;1106;-38
2022/01/01 04:34:55;;;;;;;;;;;;;;;11.58;64.02;100950.53;5088011;28;1950;-39
2022/01/01 04:37:23;;;;;;;;;;;;;;;11.60;65.03;100950.44;5083424;28;1657;-38
2022/01/01 04:39:54;;;;;;;;;;;;;;;11.58;63.85;100942.59;5082662;28;1619;-38
2022/01/01 04:42:21;;;;;;;;;;;;;;;11.57;64.51;100951.47;5081686;28;1914;-38
2022/01/01 04:44:47;;;;;;;;;;;;;;;11.56;64.57;100933.88;5081505;28;1685;-38
2022/01/01 04:47:14;;;;;;;;;;;;;;;11.60;63.94;100938.06;5085165;28;1068;-38
2022/01/01 04:49:40;;;;;;;;;;;;;;;11.55;63.95;100938.31;5089731;28;2157;-39
2022/01/01 04:52:07;;;;;;;;;;;;;;;11.56;64.59;100928.59;5082068;28;1495;-38
2022/01/01 04:54:39;;;;;;;;;;;;;;;11.53;64.99;100928.75;5081130;28;1674;-39
2022/01/01 04:57:06;;;;;;;;;;;;;;;11.53;64.75;100966.66;5080698;28;1609;-39
2022/01/01 04:59:32;;;;;;;;;;;;;;;11.51;65.09;100980.94;5083090;28;1473;-39
2022/01/01 05:01:58;;;;;;;;;;;;;;;11.51;65.20;100973.00;5083171;28;1986;-38
2022/01/01 05:04:25;;;;;;;;;;;;;;;11.49;65.00;100985.47;5090306;28;1939;-38
2022/01/01 05:06:52;;;;;;;;;;;;;;;11.49;64.56;100980.16;5084503;28;1059;-38
2022/01/01 05:09:18;;;;;;;;;;;;;;;11.49;65.04;100988.94;5081560;28;1664;-38
2022/01/01 05:11:47;;;;;;;;;;;;;;;11.54;65.07;100999.31;5083130;28;1730;-39
2022/01/01 05:14:13;;;;;;;;;;;;;;;11.58;64.32;101023.81;5083007;28;1672;-39
2022/01/01 05:16:40;;;;;;;;;;;;;;;11.55;65.08;101015.09;5082924;28;1770;-38
2022/01/01 05:19:07;;;;;;;;;;;;;;;11.58;64.04;101015.88;5084344;28;1654;-39
2022/01/01 05:21:35;;;;;;;;;;;;;;;11.58;64.46;101023.81;5082618;28;1906;-39
2022/01/01 05:24:02;;;;;;;;;;;;;;;11.57;63.83;101040.66;5082582;28;1785;-38
2022/01/01 05:26:29;;;;;;;;;;;;;;;11.57;64.97;101041.53;5082248;28;1083;-38
2022/01/01 05:28:57;;;;;;;;;;;;;;;11.51;64.89;101021.50;5081199;28;1731;-38
2022/01/01 05:31:23;;;;;;;;;;;;;;;11.53;64.87;101024.09;5080909;28;1975;-38
2022/01/01 05:33:50;;;;;;;;;;;;;;;11.50;64.48;101009.22;5092283;28;1902;-38
2022/01/01 05:36:17;;;;;;;;;;;;;;;11.50;64.41;101019.81;5081726;28;1606;-39
2022/01/01 05:38:44;;;;;;;;;;;;;;;11.48;64.91;101008.44;5081746;28;1094;-38
2022/01/01 05:41:11;;;;;;;;;;;;;;;11.50;65.41;101011.88;5080683;28;1951;-38
2022/01/01 05:43:37;;;;;;;;;;;;;;;11.48;65.01;101021.69;5080991;28;1914;-38
2022/01/01 05:46:05;;;;;;;;;;;;;;;11.46;64.08;101017.38;5082688;28;1665;-39
2022/01/01 05:48:32;;;;;;;;;;;;;;;11.48;64.88;101015.50;5091228;28;1147;-38
2022/01/01 05:50:59;;;;;;;;;;;;;;;11.46;65.13;101020.91;5084662;28;1049;-39
2022/01/01 05:53:25;;;;;;;;;;;;;;;11.50;64.13;101021.59;5079282;28;1838;-38
2022/01/01 05:55:52;;;;;;;;;;;;;;;11.46;64.62;101012.97;5081595;28;1623;-38
2022/01/01 05:58:18;;;;;;;;;;;;;;;11.52;63.98;101019.75;5082719;28;1733;-38
2022/01/01 06:00:45;;;;;;;;;;;;;;;11.52;64.83;101010.00;5082930;28;1875;-38
2022/01/01 06:03:13;;;;;;;;;;;;;;;11.51;64.33;101005.63;5088078;28;1910;-38
2022/01/01 06:05:39;;;;;;;;;;;;;;;11.53;64.91;101009.03;5081161;28;2010;-38
2022/01/01 06:08:06;;;;;;;;;;;;;;;11.50;64.16;101009.22;5064211;28;1702;-38
2022/01/01 06:10:32;;;;;;;;;;;;;;;11.49;64.48;101015.44;5083636;28;1844;-39
2022/01/01 06:12:59;;;;;;;;;;;;;;;11.53;64.92;101018.78;5084881;28;1753;-38
2022/01/01 06:15:25;;;;;;;;;;;;;;;11.51;65.11;101034.75;5085807;28;1451;-38
2022/01/01 06:17:52;;;;;;;;;;;;;;;11.47;65.20;101041.16;5085315;28;1173;-38
2022/01/01 06:20:19;;;;;;;;;;;;;;;11.49;64.66;101033.13;5087000;28;1561;-38
2022/01/01 06:22:46;;;;;;;;;;;;;;;11.50;64.54;101043.66;5086019;28;1910;-38
2022/01/01 06:25:12;;;;;;;;;;;;;;;11.54;64.22;101058.44;5086319;28;1597;-39
2022/01/01 06:27:39;;;;;;;;;;;;;;;11.51;64.41;101057.72;5085948;28;1796;-38
2022/01/01 06:30:06;;;;;;;;;;;;;;;11.50;64.14;101056.88;5084517;28;1573;-38
2022/01/01 06:32:32;;;;;;;;;;;;;;;11.53;64.69;101062.00;5087461;28;1059;-38
2022/01/01 06:34:59;;;;;;;;;;;;;;;11.54;64.15;101047.84;5089996;28;1943;-38
2022/01/01 06:37:27;;;;;;;;;;;;;;;11.55;64.93;101057.50;5085953;28;1789;-38
2022/01/01 06:39:53;;;;;;;;;;;;;;;11.54;64.09;101031.94;5085161;28;1741;-38
2022/01/01 06:42:19;;;;;;;;;;;;;;;11.52;65.00;101049.72;5083459;28;1974;-38
2022/01/01 06:44:46;;;;;;;;;;;;;;;11.51;63.76;101034.75;5083289;28;1434;-39
2022/01/01 06:47:12;;;;;;;;;;;;;;;11.51;64.16;101052.44;5087573;28;1045;-38
2022/01/01 06:49:39;;;;;;;;;;;;;;;11.52;64.70;101054.16;5092461;28;1689;-39
2022/01/01 06:52:05;;;;;;;;;;;;;;;11.52;65.11;101057.66;5084039;28;1430;-38
2022/01/01 06:54:33;;;;;;;;;;;;;;;11.52;64.11;101075.34;5083085;28;1739;-38
2022/01/01 06:57:00;;;;;;;;;;;;;;;11.54;65.00;101073.47;5084042;28;1415;-38
2022/01/01 06:59:26;;;;;;;;;;;;;;;11.55;64.82;101070.72;5086620;28;1041;-38
2022/01/01 07:01:53;;;;;;;;;;;;;;;11.51;64.86;101084.22;5083493;28;1780;-39
2022/01/01 07:04:19;;;;;;;;;;;;;;;11.48;64.75;101082.59;5091653;28;1898;-38
2022/01/01 07:06:46;;;;;;;;;;;;;;;11.50;65.41;101088.66;5086545;28;1137;-38
2022/01/01 07:09:14;;;;;;;;;;;;;;;11.52;64.15;101101.84;5084257;28;1950;-38
2022/01/01 07:11:42;;;;;;;;;;;;;;;11.50;64.67;101101.06;5085319;28;1665;-38
2022/01/01 07:14:09;;;;;;;;;;;;;;;11.46;65.27;101096.81;5085001;28;1769;-39
2022/01/01 07:16:35;;;;;;;;;;;;;;;11.46;64.35;101107.41;5085157;28;1517;-38
2022/01/01 07:19:02;;;;;;;;;;;;;;;11.46;64.36;101105.66;5085975;28;1731;-38
2022/01/01 07:21:28;;;;;;;;;;;;;;;11.44;64.61;101104.00;5084795;28;1610;-38
2022/01/01 07:23:55;;;;;;;;;;;;;;;11.44;65.32;101094.28;5081940;28;1897;-39
2022/01/01 07:26:22;;;;;;;;;;;;;;;11.49;65.25;101086.94;5083713;28;989;-38
2022/01/01 07:28:49;;;;;;;;;;;;;;;11.51;64.93;101078.91;5082504;28;1765;-39
2022/01/01 07:31:16;;;;;;;;;;;;;;;11.49;63.99;101055.16;5083240;28;1727;-38
2022/01/01 07:33:42;;;;;;;;;;;;;;;11.49;64.42;101064.91;5093370;28;1654;-38
2022/01/01 07:36:09;;;;;;;;;;;;;;;11.52;64.72;101080.66;5084147;28;1088;-38
2022/01/01 07:38:35;;;;;;;;;;;;;;;11.51;64.86;101074.47;5082949;28;1912;-38
2022/01/01 07:41:01;;;;;;;;;;;;;;;11.51;64.78;101086.88;5082654;28;1824;-39
2022/01/01 07:43:29;;;;;;;;;;;;;;;11.51;65.21;101087.72;5084241;28;1910;-38
2022/01/01 07:45:57;;;;;;;;;;;;;;;11.48;64.94;101087.00;5084769;28;1786;-38
2022/01/01 07:48:24;;;;;;;;;;;;;;;11.47;65.09;101083.50;5092190;28;941;-39
2022/01/01 07:50:50;;;;;;;;;;;;;;;11.49;64.72;101101.97;5082746;28;1694;-38
2022/01/01 07:53:17;;;;;;;;;;;;;;;11.43;64.77;101095.19;5083003;28;1676;-38
2022/01/01 07:55:43;;;;;;;;;;;;;;;11.47;64.49;101103.84;5084183;28;1967;-38
2022/01/01 07:58:09;;;;;;;;;;;;;;;11.48;64.75;101106.44;5083979;28;1561;-38
2022/01/01 08:00:36;;;;;;;;;;;;;;;11.46;65.00;101105.66;5084185;28;1790;-38
2022/01/01 08:03:04;;;;;;;;;;;;;;;11.47;65.23;101094.09;5088283;28;1910;-38
2022/01/01 08:05:30;;;;;;;;;;;;;;;11.53;64.57;101114.97;5083314;28;1916;-38
2022/01/01 08:07:57;;;;;;;;;;;;;;;11.50;64.86;101107.22;5089842;28;1498;-38
2022/01/01 08:10:23;;;;;;;;;;;;;;;11.53;64.11;101116.78;5082522;28;1661;-38
2022/01/01 08:12:50;;;;;;;;;;;;;;;11.54;64.25;101114.06;5084448;28;1661;-39
2022/01/01 08:15:16;;;;;;;;;;;;;;;11.59;63.90;101115.63;5082760;28;1665;-39
2022/01/01 08:17:43;;;;;;;;;;;;;;;11.66;63.96;101111.72;5082510;28;983;-39
2022/01/01 08:20:12;;;;;;;;;;;;;;;11.63;64.46;101106.56;5085999;28;1537;-38
2022/01/01 08:22:38;;;;;;;;;;;;;;;11.60;64.64;101102.28;5083705;28;1905;-38
2022/01/01 08:25:05;;;;;;;;;;;;;;;11.58;64.80;101103.28;5083631;28;1989;-38
2022/01/01 08:27:31;;;;;;;;;;;;;;;11.57;64.65;101098.94;5083391;28;1697;-38
2022/01/01 08:29:58;;;;;;;;;;;;;;;11.62;64.90;101096.91;5081836;28;1776;-39
2022/01/01 08:32:24;;;;;;;;;;;;;;;11.67;63.89;101089.56;5084387;28;942;-39
2022/01/01 08:34:52;;;;;;;;;;;;;;;11.69;63.79;101085.06;5088767;28;1750;-39
2022/01/01 08:37:20;;;;;;;;;;;;;;;11.69;63.93;101095.66;5083904;28;1880;-39
2022/01/01 08:39:47;;;;;;;;;;;;;;;11.67;64.56;101089.56;5082499;28;1423;-38
2022/01/01 08:42:14;;;;;;;;;;;;;;;11.68;64.22;101093.97;5081661;28;1832;-38
2022/01/01 08:44:40;;;;;;;;;;;;;;;11.66;64.53;101083.44;5082143;28;1989;-39
2022/01/01 08:47:06;;;;;;;;;;;;;;;11.65;64.32;101073.75;5084732;28;1080;-38
2022/01/01 08:49:33;;;;;;;;;;;;;;;11.68;64.04;101064.81;5087661;28;1935;-38
2022/01/01 08:51:59;;;;;;;;;;;;;;;11.71;64.06;101078.72;5083614;28;1457;-39
2022/01/01 08:54:27;;;;;;;;;;;;;;;11.70;64.12;101087.63;5082466;28;1596;-38
2022/01/01 08:56:54;;;;;;;;;;;;;;;11.75;63.99;101082.09;5081149;28;1465;-38
2022/01/01 08:59:20;;;;;;;;;;;;;;;11.77;63.96;101074.91;5084809;28;1091;-38
2022/01/01 09:01:48;;;;;;;;;;;;;;;11.77;64.13;101074.91;5082380;28;1718;-38
2022/01/01 09:04:14;;;;;;;;;;;;;;;11.79;63.95;101069.53;5083080;28;1902;-38
2022/01/01 09:06:40;;;;;;;;;;;;;;;11.76;63.93;101075.88;5083363;28;1813;-38
2022/01/01 09:09:07;;;;;;;;;;;;;;;11.77;64.23;101074.91;5083062;28;1609;-38
2022/01/01 09:11:35;;;;;;;;;;;;;;;11.77;63.87;101074.91;5083375;28;1857;-39
2022/01/01 09:14:01;;;;;;;;;;;;;;;11.80;64.17;101090.66;5081895;28;1474;-38
2022/01/01 09:16:29;;;;;;;;;;;;;;;11.80;64.30;101076.53;5081365;28;1455;-38
2022/01/01 09:18:56;;;;;;;;;;;;;;;11.83;63.97;101079.88;5082788;28;1498;-38
2022/01/01 09:21:23;;;;;;;;;;;;;;;11.85;64.26;101079.81;5082442;28;1777;-39
2022/01/01 09:23:49;;;;;;;;;;;;;;;11.82;63.77;101067.59;5082362;28;1902;-38
2022/01/01 09:26:16;;;;;;;;;;;;;;;11.84;63.91;101070.16;5081359;28;1601;-38
2022/01/01 09:28:44;;;;;;;;;;;;;;;11.82;64.07;101064.09;5081555;28;1989;-38
2022/01/01 09:31:10;;;;;;;;;;;;;;;11.78;64.01;101058.09;5082553;28;1815;-39
2022/01/01 09:33:36;;;;;;;;;;;;;;;11.74;64.42;101060.03;5091733;28;1634;-39
2022/01/01 09:36:04;;;;;;;;;;;;;;;11.77;63.87;101061.66;5081550;28;1079;-38
2022/01/01 09:38:32;;;;;;;;;;;;;;;11.74;64.34;101060.03;5081129;28;1931;-39
2022/01/01 09:40:59;;;;;;;;;;;;;;;11.74;64.00;101059.19;5081414;28;1852;-38
2022/01/01 09:43:27;;;;;;;;;;;;;;;11.77;63.93;101048.41;5084142;28;1910;-39
2022/01/01 09:45:56;;;;;;;;;;;;;;;11.77;64.19;101052.88;5086998;28;1390;-38
2022/01/01 09:48:23;;;;;;;;;;;;;;;11.78;64.21;101050.13;5094332;28;1007;-38
2022/01/01 09:50:53;;;;;;;;;;;;;;;11.80;64.26;101056.22;5084659;28;1744;-38
2022/01/01 09:53:20;;;;;;;;;;;;;;;11.80;63.95;101042.97;5084809;28;1956;-38
2022/01/01 09:55:46;;;;;;;;;;;;;;;11.86;63.83;101052.38;5077812;28;1916;-38
2022/01/01 09:58:12;;;;;;;;;;;;;;;11.83;64.00;101041.94;5086617;28;1601;-38
2022/01/01 10:00:39;;;;;;;;;;;;;;;11.83;63.96;101053.38;5086366;28;1462;-38
2022/01/01 10:03:10;;;;;;;;;;;;;;;11.84;64.13;101041.88;5090959;28;1972;-38
2022/01/01 10:05:56;;;;;;;;;;;;;;;11.80;64.29;101032.38;5084685;28;1661;-38
2022/01/01 10:08:24;;;;;;;;;;;;;;;11.85;64.10;101040.91;5071544;28;1976;-38
2022/01/01 10:10:51;;;;;;;;;;;;;;;11.91;64.04;101045.91;5085589;28;1582;-38
2022/01/01 10:13:17;;;;;;;;;;;;;;;11.99;63.92;101042.00;5084220;28;1558;-38
2022/01/01 10:15:44;;;;;;;;;;;;;;;12.06;63.65;101043.41;5084151;28;1542;-38
2022/01/01 10:18:12;;;;;;;;;;;;;;;12.13;63.45;101044.75;5081113;28;957;-38
2022/01/01 10:20:43;;;;;;;;;;;;;;;12.12;63.49;101061.63;5082228;28;1805;-38
2022/01/01 10:23:11;;;;;;;;;;;;;;;12.12;63.22;101032.44;5077889;28;1969;-38
2022/01/01 10:28:21;;;;;;;;;;;;;;;12.19;63.43;101040.91;5086373;28;1598;-38
2022/01/01 10:30:49;;;;;;;;;;;;;;;12.20;63.23;101045.28;5085883;28;2251;-38
2022/01/01 10:33:18;;;;;;;;;;;;;;;12.22;62.56;101031.00;5092546;28;1049;-39
2022/01/01 10:35:45;;;;;;;;;;;;;;;12.22;63.46;101038.09;5083952;28;1498;-39
2022/01/01 10:38:13;;;;;;;;;;;;;;;12.19;63.30;101039.09;5085199;28;1748;-38
2022/01/01 10:40:40;;;;;;;;;;;;;;;12.20;63.40;101040.84;5085781;28;1805;-38
2022/01/01 10:43:06;;;;;;;;;;;;;;;12.22;63.44;101044.25;5085662;28;1735;-39
2022/01/01 10:45:35;;;;;;;;;;;;;;;12.22;63.46;101038.09;5085857;28;1906;-38
2022/01/01 10:48:17;;;;;;;;;;;;;;;12.20;63.54;101040.84;5089739;28;1087;-38
2022/01/01 10:50:45;;;;;;;;;;;;;;;12.26;63.48;101042.28;5083505;28;1593;-39
2022/01/01 10:53:13;;;;;;;;;;;;;;;12.27;63.22;101036.88;5084564;28;1729;-38
2022/01/01 10:55:43;;;;;;;;;;;;;;;12.25;63.09;101054.66;5084899;28;1787;-39
2022/01/01 10:58:16;;;;;;;;;;;;;;;12.28;63.44;101043.91;5085782;28;1782;-39
2022/01/01 11:00:43;;;;;;;;;;;;;;;12.25;63.38;101036.13;5088916;28;1666;-39
2022/01/01 11:03:15;;;;;;;;;;;;;;;12.21;63.90;101037.22;5086450;28;1364;-39
2022/01/01 11:05:42;;;;;;;;;;;;;;;12.15;63.82;101021.66;5083404;28;2142;-40
2022/01/01 11:08:10;;;;;;;;;;;;;;;12.20;63.57;101026.72;5092190;28;1722;-38
2022/01/01 11:10:37;;;;;;;;;;;;;;;12.14;63.52;101022.63;5082872;28;1566;-39
2022/01/01 11:13:04;;;;;;;;;;;;;;;12.13;63.61;101020.88;5083474;28;1599;-38
2022/01/01 11:15:31;;;;;;;;;;;;;;;12.12;63.86;101016.53;5080755;28;1408;-39
2022/01/01 11:17:58;;;;;;;;;;;;;;;12.08;63.74;101025.59;5084616;28;1063;-38
2022/01/01 11:20:25;;;;;;;;;;;;;;;12.09;63.87;101022.00;5085323;28;1933;-38
2022/01/01 11:22:52;;;;;;;;;;;;;;;12.08;63.86;101034.41;5085240;28;1507;-39
2022/01/01 11:25:20;;;;;;;;;;;;;;;12.06;63.88;101038.94;5084675;28;2025;-38
2022/01/01 11:27:46;;;;;;;;;;;;;;;12.05;64.11;101037.22;5084877;28;1459;-38
2022/01/01 11:30:14;;;;;;;;;;;;;;;12.01;63.73;101034.81;5084110;28;1824;-38
2022/01/01 11:32:43;;;;;;;;;;;;;;;11.97;64.10;101027.97;5086318;28;1037;-38
2022/01/01 11:35:10;;;;;;;;;;;;;;;11.97;64.07;101027.97;5087391;28;2008;-39
2022/01/01 11:37:47;;;;;;;;;;;;;;;11.98;63.93;101034.97;5084581;28;1594;-38
2022/01/01 11:40:16;;;;;;;;;;;;;;;11.91;64.47;101037.09;5084964;28;1579;-38
2022/01/01 11:42:45;;;;;;;;;;;;;;;11.85;64.83;101030.31;5084317;28;1532;-38
2022/01/01 11:45:13;;;;;;;;;;;;;;;11.82;64.94;101027.84;5083536;28;1909;-38
2022/01/01 11:47:40;;;;;;;;;;;;;;;11.82;64.37;101030.50;5085862;28;1150;-39
2022/01/01 11:50:06;;;;;;;;;;;;;;;11.77;64.95;101027.22;5087384;28;1804;-38
2022/01/01 11:52:37;;;;;;;;;;;;;;;11.81;64.99;101030.56;5084527;28;1700;-38
2022/01/01 11:55:05;;;;;;;;;;;;;;;11.82;64.57;101014.59;5084346;28;1512;-39
2022/01/01 11:57:32;;;;;;;;;;;;;;;11.87;64.57;101038.19;5084878;28;1901;-39
2022/01/01 12:00:09;;;;;;;;;;;;;;;11.93;64.52;101024.63;5082739;28;1678;-38
2022/01/01 12:02:41;;;;;;;;;;;;;;;11.85;64.76;101014.41;5086462;28;1355;-38
2022/01/01 12:05:10;;;;;;;;;;;;;;;11.82;64.57;101014.59;5086941;28;2002;-38
2022/01/01 12:07:47;;;;;;;;;;;;;;;11.84;64.14;101017.16;5087780;28;1593;-38
2022/01/01 12:10:15;;;;;;;;;;;;;;;11.84;64.46;101018.00;5082197;28;1794;-39
2022/01/01 12:12:43;;;;;;;;;;;;;;;11.82;64.28;101027.00;5082842;28;1797;-39
2022/01/01 12:15:20;;;;;;;;;;;;;;;11.76;64.20;101014.94;5084784;28;996;-38
2022/01/01 12:17:49;;;;;;;;;;;;;;;11.76;65.07;101009.63;5084328;28;987;-38
2022/01/01 12:20:16;;;;;;;;;;;;;;;11.76;64.47;101009.63;5079532;28;1915;-38
2022/01/01 12:22:44;;;;;;;;;;;;;;;11.78;64.63;101010.41;5083900;28;1443;-38
2022/01/01 12:25:14;;;;;;;;;;;;;;;11.75;64.78;100998.16;5083716;28;1985;-39
2022/01/01 12:27:42;;;;;;;;;;;;;;;11.77;64.93;101003.38;5083929;28;1785;-38
2022/01/01 12:30:09;;;;;;;;;;;;;;;11.74;65.33;100996.44;5082416;28;1791;-38
2022/01/01 12:32:44;;;;;;;;;;;;;;;11.75;65.07;101003.44;5085249;28;1076;-38
2022/01/01 12:35:16;;;;;;;;;;;;;;;11.79;64.90;101008.59;5086001;28;2047;-38
2022/01/01 12:37:42;;;;;;;;;;;;;;;11.81;64.42;100993.47;5083472;28;1632;-38
2022/01/01 12:40:10;;;;;;;;;;;;;;;11.85;64.87;100995.00;5083745;28;1605;-39
2022/01/01 12:42:36;;;;;;;;;;;;;;;11.87;64.68;101003.72;5083360;28;1753;-39
2022/01/01 12:45:04;;;;;;;;;;;;;;;11.85;64.68;100995.88;5072680;28;1910;-38
2022/01/01 12:47:31;;;;;;;;;;;;;;;11.89;64.63;101002.72;5085170;28;1084;-39
2022/01/01 12:50:00;;;;;;;;;;;;;;;11.87;64.86;101012.53;5087367;28;1894;-38